Anahuac, TX

7:52 AM CDT on September 03, 2015 (GMT -0500)
Cajun Outback | | Change Station
CLOSE
Current Station
Personal Weather Station
Location: Baytown, TX
Elevation: 7 ft
Nearby Weather Stations

Elev 7 ft 29.78 °N, 94.78 °W | Updated 1 second ago

Mostly Cloudy
Mostly Cloudy
75.4 °F
Feels Like 74 °F
N
4.9
Wind Variable Wind from NNE
Gusts 6.0 mph

Today
High -- | Low -- °F
--% Chance of Precip.
Yesterday
High -- | Low -- °F
Precip. -- in
6:56 AM 7:38 PM
Waning Gibbous, 70% visible
Pressure 29.97 in
Visibility 1.2 miles
Clouds Overcast 200 ft
Heat Index 74 °F
Dew Point 74 °F
Humidity 97%
Rainfall 0.00 in
Snow Depth Not available.
UV 0 out of 12
Pollen 5.70 out of 12
Air Quality Not available.
Flu Activity Not available.
METAR KBMT 031235Z AUTO 00000KT 1 1/4SM BR OVC002 24/23 A2997 RMK AO2 T02360233
Pressure 29.97 in
Visibility 1.2 miles
Clouds Overcast 200 ft
Heat Index 74 °F
Dew Point 74 °F
Humidity 97%
Rainfall 0.00 in
Snow Depth Not available.
UV 0 out of 12
Pollen 5.70 out of 12
Air Quality Not available.
Flu Activity Not available.
METAR KBMT 031235Z AUTO 00000KT 1 1/4SM BR OVC002 24/23 A2997 RMK AO2 T02360233

10-Day Weather Forecast

×

Almanac

Astronomy

Sep. 03, 2015 Rise Set
Actual Time
Civil Twilight
Nautical Twilight
Astronomical Twilight
Moon
Length of Visible Light
Length of Day
Tomorrow will be .
, % of the Moon is Illuminated

Today's Extremes

State Highs State Lows

Community

WunderPhotos

Upload Photos

1,851,946 photos uploaded!

WunderBlogs® & News

Nearby

Air Quality

  Air Quality AQ Index Pollutant
Not available.

Snow Depth

Station Depth Elevation

Earthquake Activity

City Distance Mag. Time & Date
Minimum magnitude displayed is 2.5.

Coastal Water Temperatures

Place Temperature

Stations

Nearby Weather Stations

Station Location Temp. Windchill Dew Point Humidity Wind Precip. Elev Updated Type